Time;durP1;ratioP1;P1;durP2;ratioP2;P2;SDS_P1;SDS_P2;PMS_P1;PMS_P2;Temp;Humidity;BMP_temperature;BMP_pressure;BME280_temperature;BME280_humidity;BME280_pressure;Samples;Min_cycle;Max_cycle;Signal;HPM_P1;HPM_P2
2021/06/06 00:01:44;;;;;;;12.80;9.93;;;;;;;16.60;100.00;98627.88;5076054;28;20214;-63
2021/06/06 00:04:14;;;;;;;15.23;10.40;;;;;;;16.58;100.00;98632.47;5075694;28;20775;-62
2021/06/06 00:06:40;;;;;;;13.60;10.07;;;;;;;16.57;100.00;98638.81;5075576;28;20234;-63
2021/06/06 00:09:09;;;;;;;12.27;9.43;;;;;;;16.59;100.00;98639.50;5075917;28;20568;-62
2021/06/06 00:11:39;;;;;;;13.63;10.13;;;;;;;16.56;100.00;98625.59;5075840;28;20214;-63
2021/06/06 00:14:09;;;;;;;13.47;9.60;;;;;;;16.59;100.00;98625.34;5075311;28;20210;-63
2021/06/06 00:16:38;;;;;;;13.77;10.00;;;;;;;16.59;100.00;98620.81;5074740;28;20215;-63
2021/06/06 00:19:06;;;;;;;14.27;10.50;;;;;;;16.58;100.00;98629.00;5075612;28;20218;-62
2021/06/06 00:21:33;;;;;;;13.97;9.97;;;;;;;16.57;100.00;98628.13;5075797;28;20209;-63
2021/06/06 00:23:59;;;;;;;13.30;10.10;;;;;;;16.55;100.00;98624.75;5075406;28;20624;-63
2021/06/06 00:26:26;;;;;;;13.67;11.30;;;;;;;16.58;100.00;98626.31;5075434;28;20242;-64
2021/06/06 00:28:52;;;;;;;14.97;11.30;;;;;;;16.54;100.00;98616.88;5075602;28;20229;-63
2021/06/06 00:31:19;;;;;;;12.47;9.70;;;;;;;16.50;100.00;98621.63;5075399;28;20215;-63
2021/06/06 00:33:46;;;;;;;14.23;10.30;;;;;;;16.51;100.00;98622.50;5075340;28;20229;-63
2021/06/06 00:36:13;;;;;;;11.63;9.60;;;;;;;16.50;100.00;98620.78;5075033;28;20300;-64
2021/06/06 00:38:39;;;;;;;13.60;10.10;;;;;;;16.52;100.00;98619.66;5075367;28;20214;-64
2021/06/06 00:41:07;;;;;;;12.37;10.07;;;;;;;16.51;100.00;98623.31;5073465;28;20321;-64
2021/06/06 00:43:33;;;;;;;11.67;9.40;;;;;;;16.51;100.00;98625.97;5075218;28;20217;-63
2021/06/06 00:46:00;;;;;;;12.83;11.03;;;;;;;16.49;100.00;98619.94;5075118;28;20230;-64
2021/06/06 00:48:26;;;;;;;13.53;9.73;;;;;;;16.51;100.00;98617.16;5075235;28;20213;-64
2021/06/06 00:50:56;;;;;;;12.47;10.10;;;;;;;16.49;100.00;98613.75;5075193;28;20571;-64
2021/06/06 00:53:30;;;;;;;12.53;9.73;;;;;;;16.51;100.00;98623.31;5075155;28;20565;-64
2021/06/06 00:55:56;;;;;;;13.03;10.13;;;;;;;16.48;100.00;98620.94;5074051;28;20211;-64
2021/06/06 00:58:23;;;;;;;10.43;9.17;;;;;;;16.47;100.00;98621.88;5074760;28;20214;-63
2021/06/06 01:00:51;;;;;;;12.63;9.53;;;;;;;16.44;100.00;98619.47;5074670;28;20218;-65
2021/06/06 01:03:18;;;;;;;12.53;9.90;;;;;;;16.46;100.00;98624.69;5074734;28;20586;-64
2021/06/06 01:05:46;;;;;;;13.73;10.60;;;;;;;16.45;100.00;98623.84;5074807;28;20238;-65
2021/06/06 01:08:15;;;;;;;13.00;9.80;;;;;;;16.47;100.00;98621.88;5073245;28;20280;-65
2021/06/06 01:10:42;;;;;;;12.43;9.23;;;;;;;16.44;100.00;98632.81;5074667;28;20209;-65
2021/06/06 01:13:14;;;;;;;12.10;9.33;;;;;;;16.44;100.00;98629.28;5074487;28;20211;-65
2021/06/06 01:15:41;;;;;;;11.50;9.17;;;;;;;16.46;100.00;98630.03;5074788;28;20718;-65
2021/06/06 01:18:13;;;;;;;12.07;8.83;;;;;;;16.45;100.00;98626.50;5074417;28;20344;-65
2021/06/06 01:20:52;;;;;;;10.77;9.13;;;;;;;16.47;100.00;98624.53;5074498;28;20226;-65
2021/06/06 01:23:40;;;;;;;11.17;8.73;;;;;;;16.47;100.00;98616.53;5074523;28;20620;-64
2021/06/06 01:26:13;;;;;;;10.87;8.67;;;;;;;16.47;100.00;98613.88;5074345;28;20601;-64
2021/06/06 01:28:43;;;;;;;9.73;7.60;;;;;;;16.48;100.00;98625.41;5074084;28;20217;-64
2021/06/06 01:31:12;;;;;;;11.13;8.93;;;;;;;16.45;100.00;98612.34;5074161;28;20210;-64
2021/06/06 01:33:46;;;;;;;9.87;8.00;;;;;;;16.43;100.00;98609.78;5072671;28;20603;-63
2021/06/06 01:36:17;;;;;;;10.53;8.37;;;;;;;16.42;100.00;98608.09;5074305;28;20224;-64
2021/06/06 01:38:48;;;;;;;10.53;7.60;;;;;;;16.41;100.00;98606.38;5074301;28;20211;-65
2021/06/06 01:41:19;;;;;;;9.10;7.03;;;;;;;16.42;100.00;98599.25;5074089;28;20215;-64
2021/06/06 01:43:48;;;;;;;9.47;8.00;;;;;;;16.42;100.00;98602.78;5074047;28;20214;-64
2021/06/06 01:46:19;;;;;;;9.60;7.87;;;;;;;16.38;100.00;98598.66;5073977;28;20234;-63
2021/06/06 01:48:46;;;;;;;8.97;7.23;;;;;;;16.38;100.00;98606.66;5074011;28;20215;-64
2021/06/06 01:51:18;;;;;;;9.00;7.37;;;;;;;16.36;100.00;98605.06;5074099;28;20218;-63
2021/06/06 01:53:47;;;;;;;9.87;7.20;;;;;;;16.35;100.00;98601.53;5073671;28;20206;-63
2021/06/06 01:56:20;;;;;;;10.00;7.47;;;;;;;16.35;100.00;98606.88;5073947;28;20210;-63
2021/06/06 01:58:48;;;;;;;9.23;7.37;;;;;;;16.34;100.00;98599.03;5072001;28;20226;-63
2021/06/06 02:01:16;;;;;;;8.57;7.23;;;;;;;16.33;100.00;98597.34;5073556;28;20214;-63
2021/06/06 02:03:43;;;;;;;8.87;7.57;;;;;;;16.29;100.00;98596.75;5073632;28;20268;-63
2021/06/06 02:06:13;;;;;;;8.33;7.00;;;;;;;16.32;100.00;98596.47;5073098;28;20708;-63
2021/06/06 02:08:41;;;;;;;9.27;7.33;;;;;;;16.34;100.00;98601.69;5073605;28;20225;-63
2021/06/06 02:11:14;;;;;;;10.20;8.10;;;;;;;16.33;100.00;98595.50;5073579;28;20287;-63
2021/06/06 02:13:45;;;;;;;8.50;6.83;;;;;;;16.31;100.00;98599.28;5073443;28;20226;-63
2021/06/06 02:16:13;;;;;;;9.83;7.10;;;;;;;16.26;100.00;98594.34;5073531;28;20238;-63
2021/06/06 02:18:40;;;;;;;7.53;6.43;;;;;;;16.26;100.00;98597.00;5073440;28;20211;-63
2021/06/06 02:21:06;;;;;;;8.40;6.87;;;;;;;16.25;100.00;98595.31;5073147;28;20218;-63
2021/06/06 02:23:35;;;;;;;8.83;6.40;;;;;;;16.24;100.00;98593.63;5073129;28;20210;-63
2021/06/06 02:26:08;;;;;;;8.93;7.40;;;;;;;16.22;100.00;98590.22;5071598;28;20582;-63
2021/06/06 02:28:40;;;;;;;7.53;6.30;;;;;;;16.24;100.00;98604.28;5073312;28;20217;-63
2021/06/06 02:31:14;;;;;;;9.63;7.70;;;;;;;16.23;100.00;98597.28;5073185;28;20213;-63
2021/06/06 02:33:45;;;;;;;9.40;7.63;;;;;;;16.17;100.00;98602.28;5073038;28;20284;-63
2021/06/06 02:36:15;;;;;;;9.93;7.47;;;;;;;16.13;100.00;98595.50;5073242;28;20214;-63
2021/06/06 02:38:46;;;;;;;8.27;6.83;;;;;;;16.16;100.00;98600.59;5073199;28;20217;-63
2021/06/06 02:41:15;;;;;;;7.53;6.73;;;;;;;16.14;100.00;98598.03;5073515;28;20609;-63
2021/06/06 02:43:45;;;;;;;7.50;6.40;;;;;;;16.14;100.00;98592.69;5072917;28;20211;-64
2021/06/06 02:46:14;;;;;;;9.10;6.47;;;;;;;16.13;100.00;98593.69;5072907;28;20777;-63
2021/06/06 02:48:44;;;;;;;9.50;7.43;;;;;;;16.10;100.00;98593.09;5072875;28;20213;-63
2021/06/06 02:51:13;;;;;;;10.33;8.53;;;;;;;16.02;100.00;98595.53;5071341;28;20233;-63
2021/06/06 02:53:45;;;;;;;10.07;8.13;;;;;;;15.91;100.00;98589.41;5072753;28;20214;-64
2021/06/06 02:56:14;;;;;;;9.03;7.50;;;;;;;15.84;100.00;98588.25;5073062;28;20217;-64
2021/06/06 02:58:45;;;;;;;8.07;6.87;;;;;;;15.76;100.00;98586.22;5073156;28;20213;-65
2021/06/06 03:01:17;;;;;;;10.90;7.87;;;;;;;15.73;100.00;98591.81;5073104;28;20210;-63
2021/06/06 03:03:45;;;;;;;9.00;7.30;;;;;;;15.74;100.00;98587.31;5073037;28;20604;-64
2021/06/06 03:06:16;;;;;;;11.47;7.87;;;;;;;15.75;100.00;98589.00;5072672;28;20290;-64
2021/06/06 03:08:42;;;;;;;10.60;7.80;;;;;;;15.69;100.00;98589.50;5072985;28;20214;-64
2021/06/06 03:11:10;;;;;;;10.70;7.93;;;;;;;15.66;100.00;98587.97;5072953;28;20213;-64
2021/06/06 03:13:41;;;;;;;10.87;7.63;;;;;;;15.63;100.00;98600.69;5072966;28;20256;-64
2021/06/06 03:16:07;;;;;;;10.33;8.17;;;;;;;15.60;100.00;98593.78;5072730;28;20241;-64
2021/06/06 03:18:38;;;;;;;9.97;7.63;;;;;;;15.63;100.00;98595.38;5072210;28;20613;-64
2021/06/06 03:21:08;;;;;;;10.80;7.00;;;;;;;15.59;100.00;98589.41;5076920;28;20225;-65
2021/06/06 03:23:36;;;;;;;8.67;7.00;;;;;;;15.59;100.00;98591.25;5076497;28;20213;-64
2021/06/06 03:26:05;;;;;;;8.07;6.93;;;;;;;15.49;100.00;98591.16;5076812;28;20328;-64
2021/06/06 03:28:34;;;;;;;8.23;5.80;;;;;;;15.50;100.00;98582.19;5076492;28;20740;-64
2021/06/06 03:31:03;;;;;;;9.30;6.20;;;;;;;15.53;100.00;98579.25;5076526;28;20209;-64
2021/06/06 03:33:45;;;;;;;9.33;6.53;;;;;;;15.52;100.00;98582.06;5076625;28;20212;-64
2021/06/06 03:36:13;;;;;;;9.63;6.13;;;;;;;15.55;100.00;98582.66;5076598;28;20209;-64
2021/06/06 03:38:39;;;;;;;9.07;5.80;;;;;;;15.57;100.00;98586.03;5076641;28;20209;-64
2021/06/06 03:41:07;;;;;;;6.40;5.10;;;;;;;15.60;100.00;98582.28;5076195;28;20738;-64
2021/06/06 03:43:34;;;;;;;5.53;4.63;;;;;;;15.63;100.00;98582.03;5074467;28;20210;-64
2021/06/06 03:46:00;;;;;;;9.23;5.17;;;;;;;15.63;100.00;98582.03;5076248;28;20240;-64
2021/06/06 03:48:26;;;;;;;6.67;5.33;;;;;;;15.60;100.00;98579.59;5076152;28;20255;-64
2021/06/06 03:50:54;;;;;;;6.00;4.20;;;;;;;15.60;100.00;98585.81;5076190;28;20220;-65
2021/06/06 03:53:21;;;;;;;5.23;3.97;;;;;;;15.57;100.00;98582.53;5076273;28;20234;-65
2021/06/06 03:55:47;;;;;;;4.70;3.73;;;;;;;15.55;100.00;98576.47;5076298;28;20307;-66
2021/06/06 03:58:13;;;;;;;5.60;4.07;;;;;;;15.53;100.00;98583.75;5076336;28;20219;-66
2021/06/06 04:00:42;;;;;;;3.43;3.13;;;;;;;15.54;100.00;98593.44;5076160;28;20266;-65
2021/06/06 04:03:09;;;;;;;4.73;3.47;;;;;;;15.54;100.00;98585.44;5076142;28;20243;-66
2021/06/06 04:05:36;;;;;;;3.40;3.10;;;;;;;15.50;100.00;98589.31;5075994;28;20233;-66
2021/06/06 04:08:04;;;;;;;4.70;3.67;;;;;;;15.49;100.00;98587.63;5075973;28;20215;-66
2021/06/06 04:10:30;;;;;;;3.77;3.30;;;;;;;15.45;100.00;98586.22;5074150;28;20267;-65
2021/06/06 04:12:56;;;;;;;4.33;3.30;;;;;;;15.49;100.00;98587.63;5075918;28;20586;-65
2021/06/06 04:15:23;;;;;;;4.37;3.43;;;;;;;15.42;100.00;98581.97;5075413;28;20234;-65
2021/06/06 04:17:50;;;;;;;5.40;3.70;;;;;;;15.36;100.00;98576.28;5075733;28;20208;-65
2021/06/06 04:20:17;;;;;;;5.00;3.43;;;;;;;15.18;100.00;98575.09;5075667;28;20235;-65
2021/06/06 04:22:43;;;;;;;4.40;3.63;;;;;;;15.09;100.00;98575.84;5075547;28;20275;-63
2021/06/06 04:25:13;;;;;;;5.23;3.60;;;;;;;15.04;100.00;98576.19;5075698;28;20208;-62
2021/06/06 04:27:39;;;;;;;6.20;3.43;;;;;;;15.02;100.00;98567.47;5075678;28;20223;-62
2021/06/06 04:30:07;;;;;;;4.00;3.60;;;;;;;14.99;100.00;98572.22;5074048;28;20224;-62
2021/06/06 04:32:33;;;;;;;5.23;3.80;;;;;;;15.01;100.00;98570.25;5075259;28;20245;-62
2021/06/06 04:34:59;;;;;;;5.00;3.70;;;;;;;14.90;100.00;98563.13;5073888;28;20209;-62
2021/06/06 04:37:25;;;;;;;6.67;4.40;;;;;;;14.91;100.00;98564.81;5074986;28;20262;-62
2021/06/06 04:39:51;;;;;;;6.23;4.40;;;;;;;14.91;100.00;98575.47;5075099;28;20209;-62
2021/06/06 04:42:21;;;;;;;7.57;4.33;;;;;;;14.92;100.00;98574.50;5075086;28;20701;-62
2021/06/06 04:44:47;;;;;;;6.50;4.73;;;;;;;14.87;100.00;98567.84;5075317;28;20340;-62
2021/06/06 04:47:14;;;;;;;6.43;4.20;;;;;;;14.87;100.00;98574.03;5075171;28;20235;-61
2021/06/06 04:49:42;;;;;;;5.83;4.33;;;;;;;14.89;100.00;98572.09;5074821;28;20695;-62
2021/06/06 04:52:11;;;;;;;6.07;4.90;;;;;;;14.92;100.00;98576.34;5074718;28;20204;-62
2021/06/06 04:54:37;;;;;;;6.20;4.37;;;;;;;14.95;100.00;98576.06;5075183;28;20208;-62
2021/06/06 04:57:06;;;;;;;6.80;4.83;;;;;;;15.01;100.00;98571.13;5075046;28;20219;-62
2021/06/06 04:59:36;;;;;;;6.03;4.90;;;;;;;15.07;100.00;98572.44;5074750;28;20243;-62
2021/06/06 05:02:03;;;;;;;6.80;5.40;;;;;;;15.07;100.00;98569.75;5073093;28;20209;-61
2021/06/06 05:04:28;;;;;;;6.40;4.77;;;;;;;15.07;100.00;98570.63;5074929;28;20206;-62
2021/06/06 05:06:54;;;;;;;7.17;5.07;;;;;;;15.09;100.00;98567.84;5074918;28;20288;-61
2021/06/06 05:09:22;;;;;;;7.20;5.13;;;;;;;15.10;100.00;98570.38;5074584;28;20274;-62
2021/06/06 05:11:48;;;;;;;6.83;5.60;;;;;;;15.15;100.00;98573.50;5074654;28;20224;-62
2021/06/06 05:14:14;;;;;;;7.70;5.47;;;;;;;15.15;100.00;98570.03;5074241;28;20288;-62
2021/06/06 05:16:42;;;;;;;7.60;5.27;;;;;;;15.14;100.00;98570.97;5074823;28;20213;-62
2021/06/06 05:19:08;;;;;;;5.67;4.57;;;;;;;15.12;100.00;98578.22;5074433;28;20218;-62
2021/06/06 05:21:34;;;;;;;7.23;4.80;;;;;;;15.12;100.00;98573.78;5074478;28;20235;-62
2021/06/06 05:24:00;;;;;;;7.13;5.13;;;;;;;15.20;100.00;98570.47;5074259;28;20725;-62
2021/06/06 05:26:26;;;;;;;8.23;5.60;;;;;;;15.32;100.00;98575.69;5074414;28;20356;-62
2021/06/06 05:28:52;;;;;;;7.40;5.70;;;;;;;15.28;100.00;98576.88;5072752;28;20216;-63
2021/06/06 05:31:20;;;;;;;6.63;5.13;;;;;;;15.36;100.00;98581.63;5074502;28;20296;-62
2021/06/06 05:33:48;;;;;;;6.80;5.60;;;;;;;15.38;100.00;98579.66;5074385;28;20228;-63
2021/06/06 05:36:14;;;;;;;9.40;6.00;;;;;;;15.45;100.00;98586.22;5074306;28;20568;-62
2021/06/06 05:38:40;;;;;;;9.13;6.13;;;;;;;15.38;100.00;98580.53;5074157;28;20355;-62
2021/06/06 05:41:07;;;;;;;8.50;6.30;;;;;;;15.33;100.00;98584.53;5073813;28;20220;-62
2021/06/06 05:43:33;;;;;;;9.70;5.93;;;;;;;15.40;100.00;98588.41;5074164;28;20572;-63
2021/06/06 05:46:00;;;;;;;7.67;5.77;;;;;;;15.42;100.00;98581.13;5073775;28;20712;-63
2021/06/06 05:48:26;;;;;;;7.17;5.30;;;;;;;15.41;100.00;98580.25;5073728;28;20254;-63
2021/06/06 05:50:57;;;;;;;7.50;5.30;;;;;;;15.40;100.00;98583.06;5073643;28;20216;-63
2021/06/06 05:53:23;;;;;;;8.53;6.30;;;;;;;15.44;100.00;98584.50;5072232;28;20209;-63
2021/06/06 05:55:50;;;;;;;8.67;6.30;;;;;;;15.36;100.00;98586.94;5073967;28;20753;-63
2021/06/06 05:58:17;;;;;;;9.63;6.47;;;;;;;15.39;100.00;98586.72;5073572;28;20739;-63
2021/06/06 06:00:46;;;;;;;9.13;6.43;;;;;;;15.37;100.00;98583.31;5073796;28;20218;-63
2021/06/06 06:03:13;;;;;;;9.23;6.20;;;;;;;15.22;100.00;98584.53;5073839;28;20212;-63
2021/06/06 06:05:39;;;;;;;10.07;6.63;;;;;;;15.21;100.00;98583.66;5073822;28;20214;-62
2021/06/06 06:08:19;;;;;;;10.47;7.23;;;;;;;15.19;100.00;98584.75;5073643;28;20207;-62
2021/06/06 06:10:46;;;;;;;10.07;7.03;;;;;;;15.22;100.00;98584.53;5073654;28;20212;-62
2021/06/06 06:13:14;;;;;;;11.40;6.87;;;;;;;15.23;100.00;98580.88;5073482;28;20262;-62
2021/06/06 06:15:40;;;;;;;8.93;6.70;;;;;;;15.30;100.00;98590.06;5073514;28;20250;-62
2021/06/06 06:18:06;;;;;;;10.27;7.10;;;;;;;15.30;100.00;98592.72;5073128;28;20213;-62
2021/06/06 06:20:32;;;;;;;11.60;6.90;;;;;;;15.29;100.00;98586.59;5071849;28;20255;-62
2021/06/06 06:22:58;;;;;;;10.17;7.60;;;;;;;15.23;100.00;98586.22;5073309;28;20216;-62
2021/06/06 06:25:25;;;;;;;9.97;7.03;;;;;;;15.27;100.00;98595.66;5073154;28;20665;-63
2021/06/06 06:27:51;;;;;;;11.10;6.80;;;;;;;15.29;100.00;98585.72;5073579;28;20281;-63
2021/06/06 06:30:22;;;;;;;10.53;6.77;;;;;;;15.37;100.00;98583.31;5073023;28;20219;-62
2021/06/06 06:32:48;;;;;;;10.20;6.60;;;;;;;15.28;100.00;98587.53;5073365;28;20212;-62
2021/06/06 06:35:15;;;;;;;9.40;6.77;;;;;;;15.26;100.00;98601.94;5073232;28;20617;-61
2021/06/06 06:37:41;;;;;;;8.47;6.20;;;;;;;15.29;100.00;98597.22;5073111;28;20586;-63
2021/06/06 06:40:09;;;;;;;9.87;6.67;;;;;;;15.26;100.00;98593.94;5073346;28;20303;-63
2021/06/06 06:42:37;;;;;;;8.10;6.73;;;;;;;15.30;100.00;98598.06;5073042;28;20213;-64
2021/06/06 06:45:05;;;;;;;8.10;6.77;;;;;;;15.24;100.00;98603.88;5072447;28;20684;-63
2021/06/06 06:47:32;;;;;;;9.80;7.60;;;;;;;15.20;100.00;98595.28;5072577;28;20243;-63
2021/06/06 06:49:58;;;;;;;7.90;7.10;;;;;;;15.27;100.00;98598.31;5073286;28;20213;-64
2021/06/06 06:52:24;;;;;;;9.13;7.50;;;;;;;15.24;100.00;98599.41;5073319;28;20257;-64
2021/06/06 06:54:50;;;;;;;9.03;7.20;;;;;;;15.30;100.00;98598.06;5072658;28;20286;-63
2021/06/06 06:57:17;;;;;;;9.40;7.37;;;;;;;15.36;100.00;98602.94;5072887;28;20662;-64
2021/06/06 06:59:44;;;;;;;8.37;7.10;;;;;;;15.35;100.00;98602.09;5073360;28;20219;-63
2021/06/06 07:02:10;;;;;;;9.87;7.20;;;;;;;15.32;100.00;98596.09;5073369;28;20225;-64
2021/06/06 07:04:36;;;;;;;8.77;7.10;;;;;;;15.36;100.00;98602.94;5073308;28;20564;-64
2021/06/06 07:07:04;;;;;;;9.17;7.67;;;;;;;15.44;100.00;98604.00;5073005;28;20240;-64
2021/06/06 07:09:30;;;;;;;10.67;8.10;;;;;;;15.42;100.00;98613.09;5072863;28;20241;-64
2021/06/06 07:11:57;;;;;;;10.27;8.20;;;;;;;15.38;100.00;98611.63;5070788;28;20204;-64
2021/06/06 07:14:23;;;;;;;8.53;7.57;;;;;;;15.41;100.00;98606.91;5068758;28;20248;-64
2021/06/06 07:16:50;;;;;;;9.37;7.80;;;;;;;15.45;100.00;98607.53;5072847;28;20256;-63
2021/06/06 07:19:17;;;;;;;9.40;7.13;;;;;;;15.43;100.00;98607.63;5072023;28;20204;-64
2021/06/06 07:21:42;;;;;;;7.77;6.97;;;;;;;15.51;100.00;98607.03;5072449;28;20217;-64
2021/06/06 07:24:09;;;;;;;7.50;6.70;;;;;;;15.59;100.00;98609.91;5073072;28;20222;-64
2021/06/06 07:26:37;;;;;;;10.43;7.03;;;;;;;15.62;100.00;98609.63;5070677;28;20233;-64
2021/06/06 07:29:08;;;;;;;8.60;7.53;;;;;;;15.65;100.00;98614.72;5072686;28;20204;-64
2021/06/06 07:31:35;;;;;;;8.70;6.67;;;;;;;15.68;100.00;98603.81;5072615;28;20674;-64
2021/06/06 07:34:02;;;;;;;9.10;7.23;;;;;;;15.67;100.00;98613.63;5072473;28;20216;-64
2021/06/06 07:36:28;;;;;;;8.30;7.27;;;;;;;15.70;100.00;98612.53;5072666;28;20212;-64
2021/06/06 07:38:55;;;;;;;10.97;7.70;;;;;;;15.76;100.00;98617.38;5070900;28;20576;-64
2021/06/06 07:41:23;;;;;;;10.27;7.80;;;;;;;15.80;100.00;98613.44;5072606;28;20213;-65
2021/06/06 07:43:49;;;;;;;10.43;7.23;;;;;;;15.85;100.00;98611.25;5072324;28;20675;-64
2021/06/06 07:46:16;;;;;;;9.47;7.63;;;;;;;15.95;100.00;98613.03;5072284;28;20232;-65
2021/06/06 07:48:42;;;;;;;11.73;8.10;;;;;;;15.93;100.00;98608.78;5072581;28;20218;-64
2021/06/06 07:51:10;;;;;;;11.97;8.37;;;;;;;16.03;100.00;98615.91;5072622;28;20214;-64
2021/06/06 07:53:36;;;;;;;11.40;8.53;;;;;;;15.98;100.00;98617.25;5072516;28;20213;-64
2021/06/06 07:56:02;;;;;;;11.93;7.90;;;;;;;15.96;100.00;98608.56;5072417;28;20675;-64
2021/06/06 07:58:31;;;;;;;12.27;8.43;;;;;;;15.88;100.00;98611.84;5072192;28;20205;-64
2021/06/06 08:00:57;;;;;;;12.33;8.23;;;;;;;15.89;100.00;98618.03;5072511;28;20212;-64
2021/06/06 08:03:24;;;;;;;12.07;8.97;;;;;;;15.85;100.00;98621.91;5072169;28;20209;-63
2021/06/06 08:05:51;;;;;;;13.57;9.27;;;;;;;15.87;100.00;98615.50;5073413;28;20220;-64
2021/06/06 08:08:18;;;;;;;13.70;9.27;;;;;;;15.78;100.00;98620.75;5075795;28;20561;-64
2021/06/06 08:10:47;;;;;;;13.17;8.90;;;;;;;15.83;100.00;98615.88;5075874;28;20213;-64
2021/06/06 08:13:13;;;;;;;13.97;9.50;;;;;;;15.70;100.00;98618.69;5075650;28;20227;-64
2021/06/06 08:15:40;;;;;;;15.03;9.77;;;;;;;15.69;100.00;98624.16;5075428;28;20282;-64
2021/06/06 08:18:08;;;;;;;15.90;10.20;;;;;;;15.66;100.00;98613.75;5075681;28;20214;-64
2021/06/06 08:20:39;;;;;;;15.70;10.57;;;;;;;15.68;100.00;98619.78;5075873;28;20213;-64
2021/06/06 08:23:07;;;;;;;13.77;10.13;;;;;;;15.63;100.00;98614.84;5075751;28;20219;-64
2021/06/06 08:25:35;;;;;;;15.90;11.03;;;;;;;15.71;100.00;98622.22;5075660;28;20255;-64
2021/06/06 08:28:01;;;;;;;16.00;10.10;;;;;;;15.63;100.00;98612.19;5075652;28;20288;-64
2021/06/06 08:30:30;;;;;;;14.77;9.73;;;;;;;15.65;100.00;98614.72;5073615;28;20287;-64
2021/06/06 08:32:57;;;;;;;17.27;10.57;;;;;;;15.71;100.00;98606.22;5075219;28;20214;-64
2021/06/06 08:35:23;;;;;;;15.27;10.37;;;;;;;15.79;100.00;98606.44;5075096;28;20206;-64
2021/06/06 08:37:50;;;;;;;14.70;10.73;;;;;;;15.77;100.00;98613.72;5074979;28;20259;-64
2021/06/06 08:40:24;;;;;;;17.13;11.53;;;;;;;15.79;100.00;98612.63;5075046;28;20626;-64
2021/06/06 08:42:52;;;;;;;13.93;10.33;;;;;;;15.83;100.00;98613.22;5073443;28;20731;-64
2021/06/06 08:45:31;;;;;;;13.50;10.03;;;;;;;15.83;100.00;98618.53;5075037;28;20209;-64
2021/06/06 08:47:58;;;;;;;18.97;11.97;;;;;;;15.89;100.00;98616.19;5075340;28;20241;-65
2021/06/06 08:50:26;;;;;;;16.43;11.30;;;;;;;15.85;100.00;98617.44;5074999;28;20671;-64
2021/06/06 08:53:00;;;;;;;20.70;12.97;;;;;;;15.83;100.00;98618.53;5075127;28;20266;-64
2021/06/06 08:55:32;;;;;;;17.90;11.93;;;;;;;15.85;100.00;98619.25;5074513;28;20213;-65
2021/06/06 08:58:18;;;;;;;17.90;11.67;;;;;;;15.89;100.00;98608.19;5072984;28;20228;-65
2021/06/06 09:00:48;;;;;;;17.60;11.77;;;;;;;15.96;100.00;98613.88;5075090;28;20213;-65
2021/06/06 09:03:21;;;;;;;18.97;11.87;;;;;;;16.03;100.00;98613.25;5073415;28;20221;-65
2021/06/06 09:05:47;;;;;;;19.27;12.50;;;;;;;16.04;100.00;98613.09;5072295;28;20208;-65
2021/06/06 09:08:18;;;;;;;16.90;11.63;;;;;;;16.10;100.00;98607.25;5073581;28;20674;-65
2021/06/06 09:10:47;;;;;;;16.00;11.83;;;;;;;16.25;100.00;98611.31;5073647;28;20214;-65
2021/06/06 09:13:15;;;;;;;14.93;10.73;;;;;;;16.24;100.00;98612.28;5072240;28;20264;-65
2021/06/06 09:15:41;;;;;;;14.80;10.67;;;;;;;16.34;100.00;98615.03;5069600;28;20678;-65
2021/06/06 09:18:20;;;;;;;14.57;10.90;;;;;;;16.42;100.00;98608.09;5073592;28;20610;-65
2021/06/06 09:20:47;;;;;;;16.37;10.53;;;;;;;16.50;100.00;98613.63;5073011;28;20219;-65
2021/06/06 09:23:20;;;;;;;15.83;12.13;;;;;;;16.53;100.00;98618.69;5072556;28;20220;-65
2021/06/06 09:26:00;;;;;;;19.83;12.00;;;;;;;16.48;100.00;98607.59;5074589;28;20221;-65
2021/06/06 09:28:29;;;;;;;15.40;11.80;;;;;;;16.58;100.00;98619.13;5074216;28;20255;-65
2021/06/06 09:31:00;;;;;;;20.03;13.70;;;;;;;16.68;100.00;98624.53;5074474;28;20295;-65
2021/06/06 09:33:29;;;;;;;19.77;14.30;;;;;;;16.77;100.00;98618.41;5074514;28;20221;-65
2021/06/06 09:35:58;;;;;;;20.57;14.90;;;;;;;16.79;100.00;98617.31;5074262;28;20221;-65
2021/06/06 09:38:35;;;;;;;22.50;15.93;;;;;;;16.72;100.00;98620.63;5073973;28;20213;-65
2021/06/06 09:41:33;;;;;;;21.43;15.20;;;;;;;16.84;100.00;98624.91;5073901;28;20225;-65
2021/06/06 09:44:06;;;;;;;23.90;16.67;;;;;;;16.85;100.00;98622.13;5066020;28;20214;-65
2021/06/06 09:46:36;;;;;;;24.33;16.57;;;;;;;16.85;100.00;98631.94;5074201;28;20590;-65
2021/06/06 09:49:25;;;;;;;30.83;20.47;;;;;;;16.87;100.00;98624.63;5072384;28;20215;-65
2021/06/06 09:51:52;;;;;;;30.33;20.17;;;;;;;16.81;100.00;98626.03;5073607;28;20224;-65
2021/06/06 09:54:27;;;;;;;32.77;22.10;;;;;;;16.85;100.00;98626.59;5073970;28;20263;-65
2021/06/06 09:56:56;;;;;;;34.27;23.10;;;;;;;16.84;100.00;98633.78;5073658;28;20218;-65
2021/06/06 09:59:26;;;;;;;35.23;23.50;;;;;;;16.99;100.00;98624.44;5073914;28;20213;-65
2021/06/06 10:01:59;;;;;;;35.87;25.10;;;;;;;17.08;100.00;98634.28;5073791;28;20272;-65
2021/06/06 10:04:28;;;;;;;37.00;24.37;;;;;;;17.16;100.00;98628.28;5073742;28;20578;-65
2021/06/06 10:07:08;;;;;;;33.90;23.23;;;;;;;17.14;100.00;98632.91;5073528;28;20230;-65
2021/06/06 10:09:34;;;;;;;32.73;21.70;;;;;;;17.18;100.00;98640.53;5073686;28;20585;-65
2021/06/06 10:12:06;;;;;;;26.87;19.60;;;;;;;17.29;100.00;98637.75;5072790;28;20572;-65
2021/06/06 10:14:42;;;;;;;33.23;22.87;;;;;;;17.34;100.00;98630.19;5073634;28;20238;-65
2021/06/06 10:17:10;;;;;;;36.20;23.90;;;;;;;17.27;100.00;98634.38;5072531;28;20210;-65
2021/06/06 10:19:41;;;;;;;30.83;21.93;;;;;;;17.17;100.00;98633.50;5073211;28;20215;-65
2021/06/06 10:22:12;;;;;;;34.77;21.67;;;;;;;17.12;100.00;98630.38;5073215;28;20221;-64
2021/06/06 10:24:44;;;;;;;34.77;24.43;;;;;;;17.12;100.00;98632.22;5073131;28;20214;-65
2021/06/06 10:27:17;;;;;;;36.00;24.67;;;;;;;17.11;100.00;98634.03;5073111;28;20238;-64
2021/06/06 10:29:48;;;;;;;38.40;25.50;;;;;;;16.94;100.00;98641.84;5073328;28;20210;-65
2021/06/06 10:32:21;;;;;;;37.10;24.93;;;;;;;16.84;100.00;98639.13;5073438;28;20218;-65
2021/06/06 10:34:54;;;;;;;36.73;25.30;;;;;;;16.79;100.00;98644.00;5073417;28;20244;-65
2021/06/06 10:37:20;;;;;;;39.50;26.97;;;;;;;16.74;100.00;98642.69;5073023;28;20804;-65
2021/06/06 10:39:55;;;;;;;39.13;25.40;;;;;;;16.85;100.00;98642.63;5073069;28;20215;-65
2021/06/06 10:42:27;;;;;;;39.07;26.40;;;;;;;16.82;100.00;98643.72;5071574;28;20216;-65
2021/06/06 10:45:00;;;;;;;41.10;25.97;;;;;;;16.75;100.00;98649.72;5073135;28;20210;-65
2021/06/06 10:47:34;;;;;;;38.30;26.80;;;;;;;16.76;100.00;98646.94;5073046;28;20272;-65
2021/06/06 10:50:13;;;;;;;42.50;27.33;;;;;;;16.68;100.00;98641.41;5073171;28;20221;-65
2021/06/06 10:52:40;;;;;;;44.17;29.53;;;;;;;16.61;100.00;98645.59;5072595;28;20206;-65
2021/06/06 10:55:28;;;;;;;49.13;29.97;;;;;;;16.61;100.00;98645.59;5073138;28;20214;-65
2021/06/06 10:57:55;;;;;;;54.40;32.83;;;;;;;16.69;100.00;98637.75;5072708;28;20208;-65
2021/06/06 11:00:42;;;;;;;54.53;33.20;;;;;;;16.77;100.00;98634.44;5073012;28;20577;-65
2021/06/06 11:03:21;;;;;;;56.93;34.60;;;;;;;16.77;100.00;98640.59;5072683;28;20218;-65
2021/06/06 11:05:49;;;;;;;57.50;35.37;;;;;;;16.85;100.00;98635.47;5072810;28;20221;-65
2021/06/06 11:08:21;;;;;;;58.07;35.93;;;;;;;16.89;100.00;98636.88;5070795;28;20238;-65
2021/06/06 11:10:47;;;;;;;62.73;36.33;;;;;;;16.85;100.00;98637.28;5072742;28;20736;-65
2021/06/06 11:13:28;;;;;;;64.03;38.20;;;;;;;16.84;100.00;98638.25;5072964;28;20259;-65
2021/06/06 11:15:58;;;;;;;63.57;36.30;;;;;;;16.79;100.00;98628.00;5072784;28;20264;-65
2021/06/06 11:18:25;;;;;;;62.20;37.50;;;;;;;16.75;100.00;98625.69;5072661;28;20664;-65
2021/06/06 11:20:53;;;;;;;64.87;38.63;;;;;;;16.73;100.00;98631.19;5072919;28;20222;-65
2021/06/06 11:23:31;;;;;;;66.60;36.83;;;;;;;16.63;100.00;98626.78;5072501;28;20242;-65
2021/06/06 11:25:58;;;;;;;70.10;38.50;;;;;;;16.73;100.00;98628.50;5072816;28;20207;-65
2021/06/06 11:28:34;;;;;;;59.70;35.53;;;;;;;16.71;100.00;98625.09;5072364;28;20262;-65